sensor_id;sensor_type;location;lat;lon;timestamp;P1;durP1;ratioP1;P2;durP2;ratioP2
24631;SDS011;59977;48.782;9.190;2023-07-29T00:00:42;4.90;;;2.72;;
24631;SDS011;59977;48.782;9.190;2023-07-29T00:03:09;4.55;;;2.50;;
24631;SDS011;59977;48.782;9.190;2023-07-29T00:05:35;5.63;;;3.17;;
24631;SDS011;59977;48.782;9.190;2023-07-29T00:08:04;4.20;;;2.70;;
24631;SDS011;59977;48.782;9.190;2023-07-29T00:10:31;2.85;;;2.10;;
24631;SDS011;59977;48.782;9.190;2023-07-29T00:12:57;6.70;;;2.08;;
24631;SDS011;59977;48.782;9.190;2023-07-29T00:15:23;7.68;;;2.05;;
24631;SDS011;59977;48.782;9.190;2023-07-29T00:17:49;4.38;;;1.80;;
24631;SDS011;59977;48.782;9.190;2023-07-29T00:20:14;4.55;;;1.75;;
24631;SDS011;59977;48.782;9.190;2023-07-29T00:22:40;7.05;;;2.58;;
24631;SDS011;59977;48.782;9.190;2023-07-29T00:25:06;7.80;;;2.90;;
24631;SDS011;59977;48.782;9.190;2023-07-29T00:27:32;4.47;;;2.30;;
24631;SDS011;59977;48.782;9.190;2023-07-29T00:29:57;6.10;;;2.30;;
24631;SDS011;59977;48.782;9.190;2023-07-29T00:32:23;5.35;;;2.28;;
24631;SDS011;59977;48.782;9.190;2023-07-29T00:34:49;3.90;;;2.35;;
24631;SDS011;59977;48.782;9.190;2023-07-29T00:37:14;5.07;;;2.30;;
24631;SDS011;59977;48.782;9.190;2023-07-29T00:39:40;4.38;;;2.25;;
24631;SDS011;59977;48.782;9.190;2023-07-29T00:42:06;2.92;;;2.00;;
24631;SDS011;59977;48.782;9.190;2023-07-29T00:44:31;3.67;;;2.03;;
24631;SDS011;59977;48.782;9.190;2023-07-29T00:46:57;6.05;;;1.80;;
24631;SDS011;59977;48.782;9.190;2023-07-29T00:49:25;7.20;;;3.25;;
24631;SDS011;59977;48.782;9.190;2023-07-29T00:51:51;4.90;;;2.25;;
24631;SDS011;59977;48.782;9.190;2023-07-29T00:54:17;5.78;;;2.40;;
24631;SDS011;59977;48.782;9.190;2023-07-29T00:56:42;4.55;;;2.00;;
24631;SDS011;59977;48.782;9.190;2023-07-29T00:59:08;5.93;;;2.00;;
24631;SDS011;59977;48.782;9.190;2023-07-29T01:01:34;4.38;;;1.63;;
24631;SDS011;59977;48.782;9.190;2023-07-29T01:04:00;2.42;;;1.92;;
24631;SDS011;59977;48.782;9.190;2023-07-29T01:09:55;3.70;;;2.20;;
24631;SDS011;59977;48.782;9.190;2023-07-29T01:17:59;5.03;;;1.92;;
24631;SDS011;59977;48.782;9.190;2023-07-29T01:20:29;2.47;;;1.92;;
24631;SDS011;59977;48.782;9.190;2023-07-29T01:22:58;5.88;;;2.03;;
24631;SDS011;59977;48.782;9.190;2023-07-29T01:25:24;4.82;;;1.88;;
24631;SDS011;59977;48.782;9.190;2023-07-29T01:27:49;2.55;;;1.88;;
24631;SDS011;59977;48.782;9.190;2023-07-29T01:30:18;5.70;;;2.03;;
24631;SDS011;59977;48.782;9.190;2023-07-29T01:32:50;2.75;;;1.70;;
24631;SDS011;59977;48.782;9.190;2023-07-29T01:37:55;3.13;;;2.10;;
24631;SDS011;59977;48.782;9.190;2023-07-29T01:40:39;3.80;;;1.77;;
24631;SDS011;59977;48.782;9.190;2023-07-29T01:43:06;3.05;;;1.70;;
24631;SDS011;59977;48.782;9.190;2023-07-29T01:45:34;4.93;;;1.45;;
24631;SDS011;59977;48.782;9.190;2023-07-29T01:48:03;6.22;;;2.00;;
24631;SDS011;59977;48.782;9.190;2023-07-29T01:50:30;3.95;;;1.70;;
24631;SDS011;59977;48.782;9.190;2023-07-29T01:52:57;2.78;;;1.52;;
24631;SDS011;59977;48.782;9.190;2023-07-29T01:55:22;5.32;;;2.10;;
24631;SDS011;59977;48.782;9.190;2023-07-29T01:57:48;3.55;;;1.73;;
24631;SDS011;59977;48.782;9.190;2023-07-29T02:00:14;4.60;;;1.83;;
24631;SDS011;59977;48.782;9.190;2023-07-29T02:02:40;3.70;;;1.77;;
24631;SDS011;59977;48.782;9.190;2023-07-29T02:05:06;4.63;;;1.60;;
24631;SDS011;59977;48.782;9.190;2023-07-29T02:07:32;2.95;;;2.08;;
24631;SDS011;59977;48.782;9.190;2023-07-29T02:09:57;3.60;;;1.92;;
24631;SDS011;59977;48.782;9.190;2023-07-29T02:12:23;3.38;;;1.70;;
24631;SDS011;59977;48.782;9.190;2023-07-29T02:14:49;3.53;;;1.85;;
24631;SDS011;59977;48.782;9.190;2023-07-29T02:17:15;2.67;;;1.70;;
24631;SDS011;59977;48.782;9.190;2023-07-29T02:19:40;3.45;;;1.90;;
24631;SDS011;59977;48.782;9.190;2023-07-29T02:22:06;4.28;;;1.80;;
24631;SDS011;59977;48.782;9.190;2023-07-29T02:24:32;3.70;;;1.83;;
24631;SDS011;59977;48.782;9.190;2023-07-29T02:26:57;5.22;;;2.05;;
24631;SDS011;59977;48.782;9.190;2023-07-29T02:29:23;9.48;;;1.50;;
24631;SDS011;59977;48.782;9.190;2023-07-29T02:31:50;6.00;;;1.77;;
24631;SDS011;59977;48.782;9.190;2023-07-29T02:34:15;5.00;;;1.98;;
24631;SDS011;59977;48.782;9.190;2023-07-29T02:36:41;4.85;;;1.77;;
24631;SDS011;59977;48.782;9.190;2023-07-29T02:39:06;4.88;;;2.15;;
24631;SDS011;59977;48.782;9.190;2023-07-29T02:41:32;6.63;;;1.60;;
24631;SDS011;59977;48.782;9.190;2023-07-29T02:43:58;6.68;;;1.80;;
24631;SDS011;59977;48.782;9.190;2023-07-29T02:46:24;4.63;;;1.83;;
24631;SDS011;59977;48.782;9.190;2023-07-29T02:48:50;2.20;;;1.70;;
24631;SDS011;59977;48.782;9.190;2023-07-29T02:51:16;5.63;;;2.03;;
24631;SDS011;59977;48.782;9.190;2023-07-29T02:53:41;4.88;;;1.90;;
24631;SDS011;59977;48.782;9.190;2023-07-29T02:56:07;3.55;;;1.60;;
24631;SDS011;59977;48.782;9.190;2023-07-29T02:58:35;7.72;;;1.98;;
24631;SDS011;59977;48.782;9.190;2023-07-29T03:01:02;2.45;;;1.92;;
24631;SDS011;59977;48.782;9.190;2023-07-29T03:03:29;5.97;;;1.92;;
24631;SDS011;59977;48.782;9.190;2023-07-29T03:06:07;5.53;;;1.70;;
24631;SDS011;59977;48.782;9.190;2023-07-29T03:08:35;4.95;;;1.80;;
24631;SDS011;59977;48.782;9.190;2023-07-29T03:11:07;9.77;;;2.45;;
24631;SDS011;59977;48.782;9.190;2023-07-29T03:13:34;4.47;;;1.70;;
24631;SDS011;59977;48.782;9.190;2023-07-29T03:16:06;7.25;;;1.90;;
24631;SDS011;59977;48.782;9.190;2023-07-29T03:18:32;2.63;;;1.55;;
24631;SDS011;59977;48.782;9.190;2023-07-29T03:20:57;4.07;;;1.75;;
24631;SDS011;59977;48.782;9.190;2023-07-29T03:23:23;3.63;;;1.90;;
24631;SDS011;59977;48.782;9.190;2023-07-29T03:25:49;3.40;;;1.88;;
24631;SDS011;59977;48.782;9.190;2023-07-29T03:28:16;3.35;;;1.48;;
24631;SDS011;59977;48.782;9.190;2023-07-29T03:30:42;2.95;;;1.70;;
24631;SDS011;59977;48.782;9.190;2023-07-29T03:33:07;3.40;;;1.85;;
24631;SDS011;59977;48.782;9.190;2023-07-29T03:35:33;3.88;;;1.70;;
24631;SDS011;59977;48.782;9.190;2023-07-29T03:37:58;2.75;;;1.92;;
24631;SDS011;59977;48.782;9.190;2023-07-29T03:40:24;4.55;;;1.77;;
24631;SDS011;59977;48.782;9.190;2023-07-29T03:42:49;3.83;;;2.00;;
24631;SDS011;59977;48.782;9.190;2023-07-29T03:45:15;6.78;;;1.70;;
24631;SDS011;59977;48.782;9.190;2023-07-29T03:47:41;2.50;;;1.60;;
24631;SDS011;59977;48.782;9.190;2023-07-29T03:50:06;6.00;;;2.10;;
24631;SDS011;59977;48.782;9.190;2023-07-29T03:52:33;4.38;;;1.95;;
24631;SDS011;59977;48.782;9.190;2023-07-29T03:54:58;3.85;;;2.08;;
24631;SDS011;59977;48.782;9.190;2023-07-29T03:57:24;7.32;;;1.80;;
24631;SDS011;59977;48.782;9.190;2023-07-29T03:59:50;4.30;;;1.70;;
24631;SDS011;59977;48.782;9.190;2023-07-29T04:02:15;3.97;;;1.75;;
24631;SDS011;59977;48.782;9.190;2023-07-29T04:04:41;4.13;;;1.60;;
24631;SDS011;59977;48.782;9.190;2023-07-29T04:07:07;3.47;;;1.60;;
24631;SDS011;59977;48.782;9.190;2023-07-29T04:09:33;5.20;;;2.00;;
24631;SDS011;59977;48.782;9.190;2023-07-29T04:11:58;4.68;;;1.90;;
24631;SDS011;59977;48.782;9.190;2023-07-29T04:14:24;5.25;;;1.55;;
24631;SDS011;59977;48.782;9.190;2023-07-29T04:16:50;7.32;;;1.95;;
24631;SDS011;59977;48.782;9.190;2023-07-29T04:19:15;5.85;;;1.80;;
24631;SDS011;59977;48.782;9.190;2023-07-29T04:21:41;3.95;;;1.77;;
24631;SDS011;59977;48.782;9.190;2023-07-29T04:24:06;5.68;;;1.77;;
24631;SDS011;59977;48.782;9.190;2023-07-29T04:26:32;6.28;;;1.92;;
24631;SDS011;59977;48.782;9.190;2023-07-29T04:28:58;4.28;;;1.80;;
24631;SDS011;59977;48.782;9.190;2023-07-29T04:31:23;5.60;;;2.00;;
24631;SDS011;59977;48.782;9.190;2023-07-29T04:33:49;4.20;;;1.92;;
24631;SDS011;59977;48.782;9.190;2023-07-29T04:36:14;6.03;;;2.00;;
24631;SDS011;59977;48.782;9.190;2023-07-29T04:38:40;5.57;;;2.10;;
24631;SDS011;59977;48.782;9.190;2023-07-29T04:41:06;5.65;;;2.38;;
24631;SDS011;59977;48.782;9.190;2023-07-29T04:43:34;6.68;;;2.65;;
24631;SDS011;59977;48.782;9.190;2023-07-29T04:45:59;5.10;;;2.05;;
24631;SDS011;59977;48.782;9.190;2023-07-29T04:48:25;6.32;;;2.53;;
24631;SDS011;59977;48.782;9.190;2023-07-29T04:50:50;8.02;;;2.83;;
24631;SDS011;59977;48.782;9.190;2023-07-29T04:53:16;7.75;;;2.40;;
24631;SDS011;59977;48.782;9.190;2023-07-29T04:55:42;7.03;;;2.10;;
24631;SDS011;59977;48.782;9.190;2023-07-29T04:58:10;7.90;;;2.47;;
24631;SDS011;59977;48.782;9.190;2023-07-29T05:00:36;10.10;;;2.40;;
24631;SDS011;59977;48.782;9.190;2023-07-29T05:03:01;6.60;;;2.67;;
24631;SDS011;59977;48.782;9.190;2023-07-29T05:05:27;5.82;;;2.35;;
24631;SDS011;59977;48.782;9.190;2023-07-29T05:07:53;5.15;;;2.50;;
24631;SDS011;59977;48.782;9.190;2023-07-29T05:10:18;12.13;;;2.40;;
24631;SDS011;59977;48.782;9.190;2023-07-29T05:12:44;7.70;;;2.40;;
24631;SDS011;59977;48.782;9.190;2023-07-29T05:15:10;9.60;;;2.85;;
24631;SDS011;59977;48.782;9.190;2023-07-29T05:17:35;6.05;;;2.40;;
24631;SDS011;59977;48.782;9.190;2023-07-29T05:20:01;4.22;;;2.42;;
24631;SDS011;59977;48.782;9.190;2023-07-29T05:22:27;6.90;;;2.55;;
24631;SDS011;59977;48.782;9.190;2023-07-29T05:24:53;8.00;;;2.65;;
24631;SDS011;59977;48.782;9.190;2023-07-29T05:27:18;17.75;;;2.83;;
24631;SDS011;59977;48.782;9.190;2023-07-29T05:29:44;11.75;;;2.67;;
24631;SDS011;59977;48.782;9.190;2023-07-29T05:32:10;8.73;;;2.72;;
24631;SDS011;59977;48.782;9.190;2023-07-29T05:34:35;5.28;;;2.53;;
24631;SDS011;59977;48.782;9.190;2023-07-29T05:37:01;9.10;;;2.60;;
24631;SDS011;59977;48.782;9.190;2023-07-29T05:39:26;7.82;;;2.78;;
24631;SDS011;59977;48.782;9.190;2023-07-29T05:41:52;4.85;;;2.63;;
24631;SDS011;59977;48.782;9.190;2023-07-29T05:44:17;5.03;;;2.38;;
24631;SDS011;59977;48.782;9.190;2023-07-29T05:46:43;5.82;;;2.58;;
24631;SDS011;59977;48.782;9.190;2023-07-29T05:49:09;3.63;;;2.13;;
24631;SDS011;59977;48.782;9.190;2023-07-29T05:51:34;7.20;;;2.60;;
24631;SDS011;59977;48.782;9.190;2023-07-29T05:54:00;3.67;;;2.47;;
24631;SDS011;59977;48.782;9.190;2023-07-29T05:56:25;6.13;;;2.28;;
24631;SDS011;59977;48.782;9.190;2023-07-29T05:58:51;4.10;;;2.35;;
24631;SDS011;59977;48.782;9.190;2023-07-29T06:01:16;5.43;;;2.55;;
24631;SDS011;59977;48.782;9.190;2023-07-29T06:03:42;9.13;;;2.72;;
24631;SDS011;59977;48.782;9.190;2023-07-29T06:06:08;4.30;;;2.13;;
24631;SDS011;59977;48.782;9.190;2023-07-29T06:08:33;5.93;;;2.53;;
24631;SDS011;59977;48.782;9.190;2023-07-29T06:10:59;10.23;;;3.03;;
24631;SDS011;59977;48.782;9.190;2023-07-29T06:13:25;7.28;;;3.05;;
24631;SDS011;59977;48.782;9.190;2023-07-29T06:15:51;4.40;;;2.70;;
24631;SDS011;59977;48.782;9.190;2023-07-29T06:18:16;8.98;;;2.60;;
24631;SDS011;59977;48.782;9.190;2023-07-29T06:20:42;7.72;;;3.05;;
24631;SDS011;59977;48.782;9.190;2023-07-29T06:23:08;7.05;;;2.80;;
24631;SDS011;59977;48.782;9.190;2023-07-29T06:25:34;8.82;;;2.70;;
24631;SDS011;59977;48.782;9.190;2023-07-29T06:27:59;5.80;;;2.70;;
24631;SDS011;59977;48.782;9.190;2023-07-29T06:30:25;6.53;;;2.40;;
24631;SDS011;59977;48.782;9.190;2023-07-29T06:32:51;6.18;;;2.70;;
24631;SDS011;59977;48.782;9.190;2023-07-29T06:35:16;5.43;;;2.30;;
24631;SDS011;59977;48.782;9.190;2023-07-29T06:37:42;7.70;;;2.70;;
24631;SDS011;59977;48.782;9.190;2023-07-29T06:40:08;7.68;;;2.63;;
24631;SDS011;59977;48.782;9.190;2023-07-29T06:42:33;6.53;;;2.83;;
24631;SDS011;59977;48.782;9.190;2023-07-29T06:44:59;3.55;;;1.90;;
24631;SDS011;59977;48.782;9.190;2023-07-29T06:47:25;3.22;;;2.10;;
24631;SDS011;59977;48.782;9.190;2023-07-29T06:49:50;4.45;;;2.13;;
24631;SDS011;59977;48.782;9.190;2023-07-29T06:52:16;7.35;;;2.25;;
24631;SDS011;59977;48.782;9.190;2023-07-29T06:54:41;5.85;;;2.00;;
24631;SDS011;59977;48.782;9.190;2023-07-29T06:57:07;3.90;;;2.00;;
24631;SDS011;59977;48.782;9.190;2023-07-29T06:59:33;11.85;;;2.55;;
24631;SDS011;59977;48.782;9.190;2023-07-29T07:01:58;8.23;;;2.10;;
24631;SDS011;59977;48.782;9.190;2023-07-29T07:04:25;5.38;;;2.10;;
24631;SDS011;59977;48.782;9.190;2023-07-29T07:06:50;12.05;;;2.50;;
24631;SDS011;59977;48.782;9.190;2023-07-29T07:09:16;5.88;;;2.45;;
24631;SDS011;59977;48.782;9.190;2023-07-29T07:11:42;3.70;;;2.30;;
24631;SDS011;59977;48.782;9.190;2023-07-29T07:14:07;5.90;;;2.00;;
24631;SDS011;59977;48.782;9.190;2023-07-29T07:16:33;4.97;;;2.17;;
24631;SDS011;59977;48.782;9.190;2023-07-29T07:19:00;6.15;;;2.10;;
24631;SDS011;59977;48.782;9.190;2023-07-29T07:21:26;7.10;;;2.15;;
24631;SDS011;59977;48.782;9.190;2023-07-29T07:23:51;7.82;;;2.38;;
24631;SDS011;59977;48.782;9.190;2023-07-29T07:26:17;5.72;;;1.77;;
24631;SDS011;59977;48.782;9.190;2023-07-29T07:28:42;6.50;;;1.70;;
24631;SDS011;59977;48.782;9.190;2023-07-29T07:31:08;5.93;;;2.00;;
24631;SDS011;59977;48.782;9.190;2023-07-29T07:33:34;4.57;;;1.73;;
24631;SDS011;59977;48.782;9.190;2023-07-29T07:36:00;4.03;;;1.80;;
24631;SDS011;59977;48.782;9.190;2023-07-29T07:38:25;3.97;;;1.50;;
24631;SDS011;59977;48.782;9.190;2023-07-29T07:40:54;2.28;;;1.60;;
24631;SDS011;59977;48.782;9.190;2023-07-29T07:43:21;7.13;;;1.85;;
24631;SDS011;59977;48.782;9.190;2023-07-29T07:45:46;7.90;;;1.88;;
24631;SDS011;59977;48.782;9.190;2023-07-29T07:48:12;4.57;;;1.70;;
24631;SDS011;59977;48.782;9.190;2023-07-29T07:50:38;4.88;;;2.00;;
24631;SDS011;59977;48.782;9.190;2023-07-29T07:53:04;6.53;;;1.88;;
24631;SDS011;59977;48.782;9.190;2023-07-29T07:55:30;11.02;;;2.22;;
24631;SDS011;59977;48.782;9.190;2023-07-29T07:57:56;7.85;;;2.15;;
24631;SDS011;59977;48.782;9.190;2023-07-29T08:00:21;11.07;;;2.45;;
24631;SDS011;59977;48.782;9.190;2023-07-29T08:02:47;8.68;;;1.88;;
24631;SDS011;59977;48.782;9.190;2023-07-29T08:05:12;10.18;;;1.98;;
24631;SDS011;59977;48.782;9.190;2023-07-29T08:07:38;5.22;;;1.90;;
24631;SDS011;59977;48.782;9.190;2023-07-29T08:10:04;4.68;;;1.70;;
24631;SDS011;59977;48.782;9.190;2023-07-29T08:12:30;6.63;;;1.80;;
24631;SDS011;59977;48.782;9.190;2023-07-29T08:14:56;2.60;;;1.70;;
24631;SDS011;59977;48.782;9.190;2023-07-29T08:17:21;4.40;;;1.63;;
24631;SDS011;59977;48.782;9.190;2023-07-29T08:19:47;6.05;;;1.90;;
24631;SDS011;59977;48.782;9.190;2023-07-29T08:22:13;3.85;;;1.80;;
24631;SDS011;59977;48.782;9.190;2023-07-29T08:24:38;9.48;;;2.00;;
24631;SDS011;59977;48.782;9.190;2023-07-29T08:27:04;7.47;;;1.85;;
24631;SDS011;59977;48.782;9.190;2023-07-29T08:29:31;3.65;;;1.45;;
24631;SDS011;59977;48.782;9.190;2023-07-29T08:31:58;5.10;;;1.70;;
24631;SDS011;59977;48.782;9.190;2023-07-29T08:34:23;3.03;;;1.30;;
24631;SDS011;59977;48.782;9.190;2023-07-29T08:36:49;3.05;;;1.50;;
24631;SDS011;59977;48.782;9.190;2023-07-29T08:39:14;1.90;;;1.60;;
24631;SDS011;59977;48.782;9.190;2023-07-29T08:41:41;4.22;;;1.55;;
24631;SDS011;59977;48.782;9.190;2023-07-29T08:44:22;2.47;;;1.45;;
24631;SDS011;59977;48.782;9.190;2023-07-29T08:46:51;3.05;;;1.35;;
24631;SDS011;59977;48.782;9.190;2023-07-29T08:49:19;5.72;;;1.67;;
24631;SDS011;59977;48.782;9.190;2023-07-29T08:51:46;3.45;;;1.63;;
24631;SDS011;59977;48.782;9.190;2023-07-29T08:54:13;4.30;;;1.52;;
24631;SDS011;59977;48.782;9.190;2023-07-29T08:56:40;4.68;;;1.25;;
24631;SDS011;59977;48.782;9.190;2023-07-29T08:59:08;3.05;;;1.40;;
24631;SDS011;59977;48.782;9.190;2023-07-29T09:01:35;2.03;;;1.42;;
24631;SDS011;59977;48.782;9.190;2023-07-29T09:04:02;3.95;;;1.23;;
24631;SDS011;59977;48.782;9.190;2023-07-29T09:06:28;1.92;;;1.30;;
24631;SDS011;59977;48.782;9.190;2023-07-29T09:08:54;2.67;;;1.35;;
24631;SDS011;59977;48.782;9.190;2023-07-29T09:11:21;3.53;;;1.30;;
24631;SDS011;59977;48.782;9.190;2023-07-29T09:13:47;1.92;;;1.40;;
24631;SDS011;59977;48.782;9.190;2023-07-29T09:16:13;2.10;;;1.38;;
24631;SDS011;59977;48.782;9.190;2023-07-29T09:18:39;2.35;;;1.65;;
24631;SDS011;59977;48.782;9.190;2023-07-29T09:21:05;2.13;;;1.30;;
24631;SDS011;59977;48.782;9.190;2023-07-29T09:23:43;3.58;;;1.40;;
24631;SDS011;59977;48.782;9.190;2023-07-29T09:26:09;2.55;;;1.52;;
24631;SDS011;59977;48.782;9.190;2023-07-29T09:28:39;6.20;;;1.40;;
24631;SDS011;59977;48.782;9.190;2023-07-29T09:31:06;4.70;;;1.73;;
24631;SDS011;59977;48.782;9.190;2023-07-29T09:33:35;1.92;;;1.50;;
24631;SDS011;59977;48.782;9.190;2023-07-29T09:36:02;4.25;;;1.58;;
24631;SDS011;59977;48.782;9.190;2023-07-29T09:40:59;2.58;;;1.33;;
24631;SDS011;59977;48.782;9.190;2023-07-29T09:43:25;3.17;;;1.42;;
24631;SDS011;59977;48.782;9.190;2023-07-29T09:45:54;2.42;;;1.50;;
24631;SDS011;59977;48.782;9.190;2023-07-29T09:48:23;2.13;;;1.40;;
24631;SDS011;59977;48.782;9.190;2023-07-29T09:50:50;3.42;;;1.50;;
24631;SDS011;59977;48.782;9.190;2023-07-29T09:53:16;4.13;;;1.58;;
24631;SDS011;59977;48.782;9.190;2023-07-29T09:55:46;9.32;;;1.67;;
24631;SDS011;59977;48.782;9.190;2023-07-29T09:58:13;2.22;;;1.33;;
24631;SDS011;59977;48.782;9.190;2023-07-29T10:00:39;1.60;;;1.20;;
24631;SDS011;59977;48.782;9.190;2023-07-29T10:03:06;3.67;;;1.38;;
24631;SDS011;59977;48.782;9.190;2023-07-29T10:05:32;4.93;;;1.40;;
24631;SDS011;59977;48.782;9.190;2023-07-29T10:08:00;1.42;;;1.17;;
24631;SDS011;59977;48.782;9.190;2023-07-29T10:10:27;1.55;;;1.10;;
24631;SDS011;59977;48.782;9.190;2023-07-29T10:12:54;2.75;;;1.30;;
24631;SDS011;59977;48.782;9.190;2023-07-29T10:15:20;1.45;;;1.30;;
24631;SDS011;59977;48.782;9.190;2023-07-29T10:17:46;2.20;;;1.50;;
24631;SDS011;59977;48.782;9.190;2023-07-29T10:20:12;1.85;;;1.60;;
24631;SDS011;59977;48.782;9.190;2023-07-29T10:22:42;3.45;;;1.60;;
24631;SDS011;59977;48.782;9.190;2023-07-29T10:25:10;2.35;;;1.50;;
24631;SDS011;59977;48.782;9.190;2023-07-29T10:28:06;2.03;;;1.70;;
24631;SDS011;59977;48.782;9.190;2023-07-29T10:30:32;3.97;;;1.88;;
24631;SDS011;59977;48.782;9.190;2023-07-29T10:33:01;2.55;;;1.67;;
24631;SDS011;59977;48.782;9.190;2023-07-29T10:35:37;2.83;;;2.08;;
24631;SDS011;59977;48.782;9.190;2023-07-29T10:38:03;4.32;;;1.52;;
24631;SDS011;59977;48.782;9.190;2023-07-29T10:40:51;2.67;;;1.55;;
24631;SDS011;59977;48.782;9.190;2023-07-29T10:43:31;2.15;;;1.30;;
24631;SDS011;59977;48.782;9.190;2023-07-29T10:45:58;5.68;;;1.75;;
24631;SDS011;59977;48.782;9.190;2023-07-29T10:48:43;1.40;;;1.27;;
24631;SDS011;59977;48.782;9.190;2023-07-29T10:51:28;1.98;;;1.40;;
24631;SDS011;59977;48.782;9.190;2023-07-29T10:54:01;3.33;;;2.00;;
24631;SDS011;59977;48.782;9.190;2023-07-29T10:56:40;2.85;;;1.70;;
24631;SDS011;59977;48.782;9.190;2023-07-29T11:01:41;4.47;;;1.40;;
24631;SDS011;59977;48.782;9.190;2023-07-29T11:09:57;2.33;;;1.40;;
24631;SDS011;59977;48.782;9.190;2023-07-29T11:12:36;2.28;;;1.40;;
24631;SDS011;59977;48.782;9.190;2023-07-29T11:17:35;2.85;;;1.55;;
24631;SDS011;59977;48.782;9.190;2023-07-29T11:20:04;2.45;;;1.50;;
24631;SDS011;59977;48.782;9.190;2023-07-29T11:22:32;1.25;;;1.15;;
24631;SDS011;59977;48.782;9.190;2023-07-29T11:24:58;2.92;;;1.50;;
24631;SDS011;59977;48.782;9.190;2023-07-29T11:27:23;2.08;;;1.40;;
24631;SDS011;59977;48.782;9.190;2023-07-29T11:29:49;3.25;;;1.40;;
24631;SDS011;59977;48.782;9.190;2023-07-29T11:32:15;3.60;;;1.30;;
24631;SDS011;59977;48.782;9.190;2023-07-29T11:34:41;3.00;;;1.40;;
24631;SDS011;59977;48.782;9.190;2023-07-29T11:37:11;1.40;;;1.30;;
24631;SDS011;59977;48.782;9.190;2023-07-29T11:39:43;1.38;;;1.25;;
24631;SDS011;59977;48.782;9.190;2023-07-29T11:42:13;3.38;;;1.30;;
24631;SDS011;59977;48.782;9.190;2023-07-29T11:44:39;4.13;;;1.45;;
24631;SDS011;59977;48.782;9.190;2023-07-29T11:47:08;3.35;;;1.38;;
24631;SDS011;59977;48.782;9.190;2023-07-29T11:49:35;1.85;;;1.23;;
24631;SDS011;59977;48.782;9.190;2023-07-29T11:52:03;2.58;;;1.40;;
24631;SDS011;59977;48.782;9.190;2023-07-29T11:54:30;1.60;;;1.20;;
24631;SDS011;59977;48.782;9.190;2023-07-29T11:56:56;2.65;;;1.27;;
24631;SDS011;59977;48.782;9.190;2023-07-29T11:59:22;3.63;;;1.42;;
24631;SDS011;59977;48.782;9.190;2023-07-29T12:01:48;1.50;;;1.23;;
24631;SDS011;59977;48.782;9.190;2023-07-29T12:04:14;1.80;;;1.17;;
24631;SDS011;59977;48.782;9.190;2023-07-29T12:06:41;3.28;;;1.50;;
24631;SDS011;59977;48.782;9.190;2023-07-29T12:09:07;2.92;;;1.50;;
24631;SDS011;59977;48.782;9.190;2023-07-29T12:11:34;1.70;;;1.40;;
24631;SDS011;59977;48.782;9.190;2023-07-29T12:14:00;4.70;;;1.40;;
24631;SDS011;59977;48.782;9.190;2023-07-29T12:16:26;2.95;;;1.50;;
24631;SDS011;59977;48.782;9.190;2023-07-29T12:18:52;1.75;;;1.33;;
24631;SDS011;59977;48.782;9.190;2023-07-29T12:21:20;1.50;;;1.40;;
24631;SDS011;59977;48.782;9.190;2023-07-29T12:23:46;3.80;;;1.50;;
24631;SDS011;59977;48.782;9.190;2023-07-29T12:26:12;1.50;;;1.40;;
24631;SDS011;59977;48.782;9.190;2023-07-29T12:28:37;2.95;;;1.90;;
24631;SDS011;59977;48.782;9.190;2023-07-29T12:31:06;2.22;;;1.80;;
24631;SDS011;59977;48.782;9.190;2023-07-29T12:33:36;1.85;;;1.50;;
24631;SDS011;59977;48.782;9.190;2023-07-29T12:36:07;2.80;;;1.48;;
24631;SDS011;59977;48.782;9.190;2023-07-29T12:38:33;2.30;;;1.70;;
24631;SDS011;59977;48.782;9.190;2023-07-29T12:40:58;3.80;;;1.90;;
24631;SDS011;59977;48.782;9.190;2023-07-29T12:43:24;2.55;;;1.80;;
24631;SDS011;59977;48.782;9.190;2023-07-29T12:45:51;2.70;;;1.95;;
24631;SDS011;59977;48.782;9.190;2023-07-29T12:48:17;2.25;;;1.60;;
24631;SDS011;59977;48.782;9.190;2023-07-29T12:50:42;2.10;;;1.63;;
24631;SDS011;59977;48.782;9.190;2023-07-29T12:53:08;2.15;;;1.50;;
24631;SDS011;59977;48.782;9.190;2023-07-29T12:55:35;3.75;;;1.40;;
24631;SDS011;59977;48.782;9.190;2023-07-29T12:58:01;5.20;;;1.65;;
24631;SDS011;59977;48.782;9.190;2023-07-29T13:00:27;1.83;;;1.40;;
24631;SDS011;59977;48.782;9.190;2023-07-29T13:02:53;4.47;;;1.70;;
24631;SDS011;59977;48.782;9.190;2023-07-29T13:05:19;2.28;;;1.65;;
24631;SDS011;59977;48.782;9.190;2023-07-29T13:07:45;3.70;;;1.60;;
24631;SDS011;59977;48.782;9.190;2023-07-29T13:10:11;1.80;;;1.38;;
24631;SDS011;59977;48.782;9.190;2023-07-29T13:12:37;2.55;;;1.50;;
24631;SDS011;59977;48.782;9.190;2023-07-29T13:15:03;3.65;;;1.55;;
24631;SDS011;59977;48.782;9.190;2023-07-29T13:17:29;2.67;;;1.80;;
24631;SDS011;59977;48.782;9.190;2023-07-29T13:19:55;2.95;;;1.55;;
24631;SDS011;59977;48.782;9.190;2023-07-29T13:22:20;2.20;;;1.65;;
24631;SDS011;59977;48.782;9.190;2023-07-29T13:24:46;3.75;;;2.17;;
24631;SDS011;59977;48.782;9.190;2023-07-29T13:27:14;9.90;;;2.30;;
24631;SDS011;59977;48.782;9.190;2023-07-29T13:29:40;1.90;;;1.60;;
24631;SDS011;59977;48.782;9.190;2023-07-29T13:32:06;3.38;;;1.95;;
24631;SDS011;59977;48.782;9.190;2023-07-29T13:34:32;3.80;;;2.42;;
24631;SDS011;59977;48.782;9.190;2023-07-29T13:36:59;2.55;;;1.60;;
24631;SDS011;59977;48.782;9.190;2023-07-29T13:39:25;1.88;;;1.60;;
24631;SDS011;59977;48.782;9.190;2023-07-29T13:41:50;2.00;;;1.60;;
24631;SDS011;59977;48.782;9.190;2023-07-29T13:44:16;2.33;;;1.70;;
24631;SDS011;59977;48.782;9.190;2023-07-29T13:46:41;1.92;;;1.60;;
24631;SDS011;59977;48.782;9.190;2023-07-29T13:49:07;2.35;;;1.98;;
24631;SDS011;59977;48.782;9.190;2023-07-29T13:51:32;3.05;;;1.58;;
24631;SDS011;59977;48.782;9.190;2023-07-29T13:53:58;1.88;;;1.67;;
24631;SDS011;59977;48.782;9.190;2023-07-29T13:56:24;1.90;;;1.50;;
24631;SDS011;59977;48.782;9.190;2023-07-29T13:58:50;2.20;;;1.55;;
24631;SDS011;59977;48.782;9.190;2023-07-29T14:01:15;3.75;;;1.90;;
24631;SDS011;59977;48.782;9.190;2023-07-29T14:03:41;2.85;;;1.40;;
24631;SDS011;59977;48.782;9.190;2023-07-29T14:06:07;1.80;;;1.70;;
24631;SDS011;59977;48.782;9.190;2023-07-29T14:08:33;2.10;;;1.50;;
24631;SDS011;59977;48.782;9.190;2023-07-29T14:11:00;2.53;;;1.80;;
24631;SDS011;59977;48.782;9.190;2023-07-29T14:13:26;3.72;;;1.42;;
24631;SDS011;59977;48.782;9.190;2023-07-29T14:15:52;2.53;;;1.50;;
24631;SDS011;59977;48.782;9.190;2023-07-29T14:18:17;1.98;;;1.50;;
24631;SDS011;59977;48.782;9.190;2023-07-29T14:20:43;4.85;;;1.60;;
24631;SDS011;59977;48.782;9.190;2023-07-29T14:23:09;2.35;;;1.80;;
24631;SDS011;59977;48.782;9.190;2023-07-29T14:25:34;1.88;;;1.60;;
24631;SDS011;59977;48.782;9.190;2023-07-29T14:28:00;3.63;;;1.88;;
24631;SDS011;59977;48.782;9.190;2023-07-29T14:30:25;2.40;;;1.65;;
24631;SDS011;59977;48.782;9.190;2023-07-29T14:33:03;2.28;;;1.80;;
24631;SDS011;59977;48.782;9.190;2023-07-29T14:35:30;2.42;;;1.45;;
24631;SDS011;59977;48.782;9.190;2023-07-29T14:37:55;1.90;;;1.35;;
24631;SDS011;59977;48.782;9.190;2023-07-29T14:40:21;3.80;;;1.60;;
24631;SDS011;59977;48.782;9.190;2023-07-29T14:42:47;3.00;;;1.67;;
24631;SDS011;59977;48.782;9.190;2023-07-29T14:45:12;2.95;;;1.60;;
24631;SDS011;59977;48.782;9.190;2023-07-29T14:47:38;3.47;;;1.67;;
24631;SDS011;59977;48.782;9.190;2023-07-29T14:50:04;2.67;;;1.90;;
24631;SDS011;59977;48.782;9.190;2023-07-29T14:52:29;2.35;;;1.50;;
24631;SDS011;59977;48.782;9.190;2023-07-29T14:54:55;5.47;;;1.77;;
24631;SDS011;59977;48.782;9.190;2023-07-29T14:57:21;2.35;;;1.80;;
24631;SDS011;59977;48.782;9.190;2023-07-29T14:59:48;2.00;;;1.42;;
24631;SDS011;59977;48.782;9.190;2023-07-29T15:02:13;4.57;;;1.80;;
24631;SDS011;59977;48.782;9.190;2023-07-29T15:04:39;7.70;;;2.10;;
24631;SDS011;59977;48.782;9.190;2023-07-29T15:07:04;2.58;;;1.77;;
24631;SDS011;59977;48.782;9.190;2023-07-29T15:09:30;2.60;;;1.88;;